Time;durP1;ratioP1;P1;durP2;ratioP2;P2;SDS_P1;SDS_P2;PMS_P1;PMS_P2;Temp;Humidity;BMP_temperature;BMP_pressure;BME280_temperature;BME280_humidity;BME280_pressure;Samples;Min_cycle;Max_cycle;Signal;HPM_P1;HPM_P2
2022/03/25 00:01:55;;;;;;;53.20;33.37;;;5.10;99.90;;;;;;5021006;28;20184;-82
2022/03/25 00:04:20;;;;;;;53.73;32.70;;;5.10;99.90;;;;;;5021290;28;20176;-79
2022/03/25 00:06:47;;;;;;;57.40;33.20;;;5.20;99.90;;;;;;5016196;28;20650;-79
2022/03/25 00:09:12;;;;;;;54.57;34.37;;;5.20;99.90;;;;;;5016341;28;20200;-79
2022/03/25 00:11:38;;;;;;;52.63;33.40;;;5.20;99.90;;;;;;5016560;28;20179;-79
2022/03/25 00:14:03;;;;;;;54.63;33.43;;;5.10;99.90;;;;;;5016097;28;20176;-79
2022/03/25 00:16:29;;;;;;;47.03;31.30;;;5.00;99.90;;;;;;5017467;28;20180;-79
2022/03/25 00:18:55;;;;;;;57.87;33.43;;;4.90;99.90;;;;;;4999645;28;20238;-78
2022/03/25 00:21:21;;;;;;;56.70;34.00;;;4.90;99.90;;;;;;5017269;28;20538;-78
2022/03/25 00:23:47;;;;;;;59.33;33.77;;;4.90;99.90;;;;;;5015812;28;20207;-78
2022/03/25 00:26:12;;;;;;;52.03;33.67;;;4.80;99.90;;;;;;5016103;28;20275;-78
2022/03/25 00:28:38;;;;;;;51.33;32.70;;;4.70;99.90;;;;;;5014961;28;20195;-78
2022/03/25 00:31:08;;;;;;;57.83;33.27;;;4.60;99.90;;;;;;5016723;28;20172;-79
2022/03/25 00:33:36;;;;;;;57.87;32.80;;;4.60;99.90;;;;;;5017387;28;20643;-79
2022/03/25 00:36:02;;;;;;;60.47;33.93;;;4.60;99.90;;;;;;5017154;28;20176;-79
2022/03/25 00:38:28;;;;;;;57.23;33.70;;;4.60;99.90;;;;;;5017211;28;20218;-79
2022/03/25 00:40:55;;;;;;;55.27;32.63;;;4.70;99.90;;;;;;5016470;28;20179;-79
2022/03/25 00:43:22;;;;;;;58.33;34.00;;;4.70;99.90;;;;;;5019276;28;20196;-79
2022/03/25 00:45:48;;;;;;;57.67;33.93;;;4.60;99.90;;;;;;5019849;28;20168;-78
2022/03/25 00:48:14;;;;;;;55.80;33.27;;;4.60;99.90;;;;;;5017660;28;20286;-78
2022/03/25 00:50:41;;;;;;;58.77;33.90;;;4.60;99.90;;;;;;5015841;28;20630;-79
2022/03/25 00:53:08;;;;;;;55.50;34.10;;;4.60;99.90;;;;;;5017325;28;20175;-79
2022/03/25 00:55:34;;;;;;;58.47;33.07;;;4.40;99.90;;;;;;5020161;28;20180;-78
2022/03/25 00:58:00;;;;;;;54.20;32.43;;;4.30;99.90;;;;;;5021192;28;20203;-79
2022/03/25 01:00:26;;;;;;;62.27;33.27;;;4.30;99.90;;;;;;5019100;28;20184;-79
2022/03/25 01:02:53;;;;;;;55.73;33.47;;;4.30;99.90;;;;;;5018956;28;20199;-79
2022/03/25 01:05:19;;;;;;;51.53;32.33;;;4.20;99.90;;;;;;5017394;28;20179;-79
2022/03/25 01:07:45;;;;;;;53.83;33.20;;;4.10;99.90;;;;;;5017307;28;20196;-79
2022/03/25 01:10:13;;;;;;;56.80;33.77;;;4.10;99.90;;;;;;5017122;28;20172;-78
2022/03/25 01:12:39;;;;;;;55.93;31.33;;;4.20;99.90;;;;;;5018660;28;20176;-81
2022/03/25 01:15:05;;;;;;;53.13;32.13;;;4.10;99.90;;;;;;5018496;28;20184;-78
2022/03/25 01:17:31;;;;;;;56.17;31.50;;;4.10;99.90;;;;;;5018588;28;20196;-80
2022/03/25 01:19:57;;;;;;;53.70;31.67;;;4.10;99.90;;;;;;5023204;28;20279;-80
2022/03/25 01:22:23;;;;;;;52.83;33.70;;;4.00;99.90;;;;;;5019286;28;20207;-80
2022/03/25 01:24:49;;;;;;;54.67;33.93;;;3.90;99.90;;;;;;5019562;28;20179;-81
2022/03/25 01:27:17;;;;;;;53.77;33.20;;;3.90;99.90;;;;;;5018345;28;20212;-79
2022/03/25 01:29:43;;;;;;;55.07;32.70;;;3.80;99.90;;;;;;5020183;28;20194;-81
2022/03/25 01:32:08;;;;;;;52.47;32.07;;;3.80;99.90;;;;;;5019903;28;20211;-81
2022/03/25 01:34:35;;;;;;;57.10;31.47;;;3.80;99.90;;;;;;5019674;28;20183;-81
2022/03/25 01:37:01;;;;;;;56.33;32.10;;;3.80;99.90;;;;;;5019132;28;20186;-81
2022/03/25 01:39:27;;;;;;;55.77;34.23;;;3.80;99.90;;;;;;5018568;28;20183;-81
2022/03/25 01:41:55;;;;;;;53.00;31.87;;;3.70;99.90;;;;;;5002322;28;20184;-81
2022/03/25 01:44:28;;;;;;;50.20;32.57;;;3.70;99.90;;;;;;5019499;28;20167;-81
2022/03/25 01:46:55;;;;;;;52.37;31.30;;;3.60;99.90;;;;;;5018765;28;20548;-81
2022/03/25 01:49:22;;;;;;;47.33;32.33;;;3.60;99.90;;;;;;5020390;28;20196;-81
2022/03/25 01:51:53;;;;;;;57.20;32.30;;;3.50;99.90;;;;;;5019264;28;20176;-81
2022/03/25 01:54:18;;;;;;;51.13;31.70;;;3.60;99.90;;;;;;5017744;28;20204;-81
2022/03/25 01:56:44;;;;;;;54.63;33.23;;;3.70;99.90;;;;;;5019396;28;20195;-81
2022/03/25 01:59:10;;;;;;;59.77;34.97;;;3.60;99.90;;;;;;5018918;28;20231;-80
2022/03/25 02:01:36;;;;;;;57.93;33.73;;;3.60;99.90;;;;;;5017219;28;20183;-81
2022/03/25 02:04:02;;;;;;;58.47;34.90;;;3.70;99.90;;;;;;5017704;28;20221;-82
2022/03/25 02:06:28;;;;;;;56.20;32.90;;;3.70;99.90;;;;;;5021076;28;20199;-81
2022/03/25 02:08:54;;;;;;;57.93;33.13;;;3.60;99.90;;;;;;5021789;28;20572;-82
2022/03/25 02:11:19;;;;;;;69.87;35.50;;;3.50;99.90;;;;;;5021237;28;20176;-82
2022/03/25 02:13:45;;;;;;;59.67;33.17;;;3.40;99.90;;;;;;5021588;28;20237;-81
2022/03/25 02:16:11;;;;;;;55.50;33.60;;;3.50;99.90;;;;;;5004894;28;20266;-81
2022/03/25 02:18:37;;;;;;;54.97;34.67;;;3.50;99.90;;;;;;5021224;28;20238;-81
2022/03/25 02:21:03;;;;;;;64.53;36.37;;;3.50;99.90;;;;;;5022874;28;20171;-81
2022/03/25 02:23:28;;;;;;;58.67;34.50;;;3.50;99.90;;;;;;5021256;28;20293;-81
2022/03/25 02:25:55;;;;;;;59.27;33.27;;;3.50;99.90;;;;;;5022398;28;20298;-81
2022/03/25 02:28:21;;;;;;;54.90;33.77;;;3.40;99.90;;;;;;5021251;28;20203;-81
2022/03/25 02:30:47;;;;;;;60.37;33.03;;;3.50;99.90;;;;;;5021401;28;20172;-81
2022/03/25 02:33:14;;;;;;;59.20;33.07;;;3.50;99.90;;;;;;5003831;28;20191;-81
2022/03/25 02:35:39;;;;;;;58.83;33.57;;;3.40;99.90;;;;;;5022032;28;20730;-82
2022/03/25 02:38:06;;;;;;;57.17;33.70;;;3.50;99.90;;;;;;5004567;28;20235;-81
2022/03/25 02:40:32;;;;;;;56.00;32.47;;;3.40;99.90;;;;;;5021820;28;20244;-80
2022/03/25 02:42:57;;;;;;;55.33;33.43;;;3.40;99.90;;;;;;5020875;28;20664;-80
2022/03/25 02:45:23;;;;;;;55.93;32.10;;;3.30;99.90;;;;;;5021311;28;20176;-80
2022/03/25 02:47:49;;;;;;;53.77;32.87;;;3.10;99.90;;;;;;5021700;28;20271;-80
2022/03/25 02:50:15;;;;;;;53.87;33.53;;;3.00;99.90;;;;;;5019377;28;20707;-80
2022/03/25 02:52:41;;;;;;;54.90;31.77;;;2.90;99.90;;;;;;5020728;28;20235;-80
2022/03/25 02:55:11;;;;;;;54.07;33.13;;;3.00;99.90;;;;;;5020958;28;20510;-80
2022/03/25 02:57:37;;;;;;;58.37;33.47;;;3.10;99.90;;;;;;5020110;28;20207;-80
2022/03/25 03:00:08;;;;;;;57.73;34.73;;;3.20;99.90;;;;;;5021132;28;20187;-80
2022/03/25 03:02:38;;;;;;;60.63;34.77;;;3.20;99.90;;;;;;5017753;28;20191;-81
2022/03/25 03:05:07;;;;;;;60.37;36.73;;;3.20;99.90;;;;;;5019481;28;20176;-81
2022/03/25 03:07:35;;;;;;;60.20;34.67;;;3.30;99.90;;;;;;5019504;28;20228;-80
2022/03/25 03:10:05;;;;;;;65.33;35.83;;;3.30;99.90;;;;;;5021528;28;20254;-80
2022/03/25 03:12:32;;;;;;;59.07;35.23;;;3.30;99.90;;;;;;5020110;28;20180;-80
2022/03/25 03:14:59;;;;;;;57.00;34.50;;;3.30;99.90;;;;;;5021462;28;20168;-80
2022/03/25 03:17:25;;;;;;;59.73;33.60;;;3.20;99.90;;;;;;5019929;28;20191;-79
2022/03/25 03:19:50;;;;;;;61.60;33.77;;;3.20;99.90;;;;;;5020596;28;20546;-80
2022/03/25 03:22:17;;;;;;;57.33;33.57;;;3.20;99.90;;;;;;5020586;28;20204;-80
2022/03/25 03:24:43;;;;;;;60.70;33.97;;;3.20;99.90;;;;;;5022262;28;20164;-79
2022/03/25 03:27:10;;;;;;;50.10;31.37;;;3.10;99.90;;;;;;5021915;28;20168;-80
2022/03/25 03:29:36;;;;;;;63.13;33.07;;;2.90;99.90;;;;;;5021055;28;20239;-80
2022/03/25 03:32:03;;;;;;;53.17;32.63;;;2.80;99.90;;;;;;5020145;28;20196;-80
2022/03/25 03:34:29;;;;;;;54.10;32.73;;;2.80;99.90;;;;;;5019981;28;20182;-80
2022/03/25 03:36:54;;;;;;;54.77;32.07;;;2.60;99.90;;;;;;5019033;28;20195;-81
2022/03/25 03:39:20;;;;;;;56.37;32.37;;;2.50;99.90;;;;;;5020575;28;20192;-80
2022/03/25 03:41:46;;;;;;;58.20;32.90;;;2.50;99.90;;;;;;5019361;28;20186;-80
2022/03/25 03:44:11;;;;;;;58.37;32.83;;;2.40;99.90;;;;;;5020908;28;20200;-80
2022/03/25 03:46:37;;;;;;;59.80;35.80;;;2.30;99.90;;;;;;5019332;28;20190;-81
2022/03/25 03:49:03;;;;;;;51.10;32.00;;;2.30;99.90;;;;;;5019010;28;20191;-81
2022/03/25 03:51:29;;;;;;;59.03;33.20;;;2.40;99.90;;;;;;5017771;28;20179;-81
2022/03/25 03:53:55;;;;;;;59.57;33.60;;;2.30;99.90;;;;;;5019561;28;20180;-80
2022/03/25 03:56:22;;;;;;;55.17;31.00;;;2.30;99.90;;;;;;5019539;28;20175;-81
2022/03/25 03:58:48;;;;;;;56.17;32.30;;;2.20;99.90;;;;;;5019066;28;20204;-81
2022/03/25 04:01:14;;;;;;;56.83;34.03;;;2.30;99.90;;;;;;5018820;28;20187;-81
2022/03/25 04:03:39;;;;;;;54.20;32.27;;;2.20;99.90;;;;;;5020927;28;20562;-81
2022/03/25 04:06:05;;;;;;;56.80;33.20;;;2.20;99.90;;;;;;5003676;28;20191;-80
2022/03/25 04:08:31;;;;;;;57.57;32.43;;;2.20;99.90;;;;;;5019934;28;20239;-80
2022/03/25 04:10:58;;;;;;;55.90;33.57;;;2.20;99.90;;;;;;5019461;28;20707;-81
2022/03/25 04:13:24;;;;;;;56.27;34.00;;;2.40;99.90;;;;;;5019543;28;20267;-81
2022/03/25 04:15:50;;;;;;;51.37;32.60;;;2.40;99.90;;;;;;5019821;28;20266;-83
2022/03/25 04:18:17;;;;;;;52.77;30.70;;;2.50;99.90;;;;;;5020203;28;20214;-81
2022/03/25 04:20:42;;;;;;;56.27;33.67;;;2.40;99.90;;;;;;5003361;28;20230;-82
2022/03/25 04:23:08;;;;;;;50.63;32.93;;;2.30;99.90;;;;;;5021182;28;20196;-81
2022/03/25 04:25:34;;;;;;;57.33;32.27;;;2.30;99.90;;;;;;5019413;28;20273;-82
2022/03/25 04:28:00;;;;;;;55.27;32.77;;;2.30;99.90;;;;;;5019335;28;20199;-80
2022/03/25 04:30:28;;;;;;;56.13;33.83;;;2.30;99.90;;;;;;5020854;28;20172;-81
2022/03/25 04:32:56;;;;;;;59.03;32.53;;;2.30;99.90;;;;;;5019361;28;20202;-79
2022/03/25 04:35:24;;;;;;;53.20;32.43;;;2.20;99.90;;;;;;5018569;28;20172;-80
2022/03/25 04:37:50;;;;;;;57.97;35.13;;;2.20;99.90;;;;;;5018686;28;20203;-81
2022/03/25 04:40:18;;;;;;;57.07;31.83;;;2.20;99.90;;;;;;5018044;28;20187;-80
2022/03/25 04:42:51;;;;;;;57.50;33.20;;;2.10;99.90;;;;;;5017947;28;20211;-80
2022/03/25 04:45:18;;;;;;;60.77;33.43;;;2.00;99.90;;;;;;5018933;28;20588;-80
2022/03/25 04:47:44;;;;;;;60.93;32.53;;;1.80;99.90;;;;;;5017427;28;20192;-80
2022/03/25 04:50:11;;;;;;;58.33;33.83;;;1.70;99.90;;;;;;5017133;28;20187;-81
2022/03/25 04:52:37;;;;;;;59.97;34.00;;;1.60;99.90;;;;;;5018882;28;20199;-82
2022/03/25 04:55:04;;;;;;;55.43;32.73;;;1.50;99.90;;;;;;5017839;28;20183;-80
2022/03/25 04:57:29;;;;;;;56.40;33.33;;;1.50;99.90;;;;;;5017679;28;20221;-81
2022/03/25 04:59:55;;;;;;;56.60;32.53;;;1.40;99.90;;;;;;5018881;28;20203;-81
2022/03/25 05:02:22;;;;;;;55.27;32.63;;;1.40;99.90;;;;;;5017972;28;20306;-81
2022/03/25 05:04:47;;;;;;;60.67;33.00;;;1.40;99.90;;;;;;5017256;28;20179;-81
2022/03/25 05:07:17;;;;;;;52.83;32.57;;;1.30;99.90;;;;;;5013772;28;20666;-81
2022/03/25 05:09:44;;;;;;;52.90;31.30;;;1.30;99.90;;;;;;5015650;28;20211;-81
2022/03/25 05:12:12;;;;;;;55.77;31.80;;;1.40;99.90;;;;;;5014967;28;20230;-81
2022/03/25 05:14:39;;;;;;;54.90;31.03;;;1.50;99.90;;;;;;5014099;28;20203;-81
2022/03/25 05:17:05;;;;;;;53.20;32.80;;;1.50;99.90;;;;;;5014933;28;20168;-81
2022/03/25 05:19:31;;;;;;;58.00;29.13;;;1.50;99.90;;;;;;5013859;28;20230;-81
2022/03/25 05:21:57;;;;;;;52.30;31.83;;;1.50;99.90;;;;;;5015027;28;20178;-80
2022/03/25 05:24:24;;;;;;;52.17;31.00;;;1.50;99.90;;;;;;5013647;28;20549;-80
2022/03/25 05:26:49;;;;;;;50.03;30.67;;;1.40;99.90;;;;;;5015381;28;20518;-80
2022/03/25 05:29:15;;;;;;;56.27;32.30;;;1.40;99.90;;;;;;5014618;28;20195;-80
2022/03/25 05:31:41;;;;;;;54.47;31.27;;;1.40;99.90;;;;;;5015147;28;20194;-80
2022/03/25 05:34:07;;;;;;;56.30;33.30;;;1.50;99.90;;;;;;5013927;28;20179;-79
2022/03/25 05:36:34;;;;;;;51.50;32.97;;;1.40;99.90;;;;;;5015050;28;20182;-79
2022/03/25 05:39:00;;;;;;;57.30;31.70;;;1.40;99.90;;;;;;5014056;28;20568;-79
2022/03/25 05:41:29;;;;;;;49.47;30.20;;;1.50;99.90;;;;;;5013276;28;20571;-78
2022/03/25 05:43:57;;;;;;;48.53;30.67;;;1.50;99.90;;;;;;5015133;28;20235;-79
2022/03/25 05:46:23;;;;;;;52.40;28.90;;;1.60;99.90;;;;;;5013983;28;20168;-78
2022/03/25 05:48:49;;;;;;;52.20;29.90;;;1.60;99.90;;;;;;5014485;28;20219;-78
2022/03/25 05:51:15;;;;;;;53.63;31.57;;;1.60;99.90;;;;;;5014353;28;20203;-79
2022/03/25 05:53:41;;;;;;;52.20;30.10;;;1.60;99.90;;;;;;5013207;28;20229;-79
2022/03/25 05:56:08;;;;;;;49.47;31.00;;;1.60;99.90;;;;;;5013446;28;20214;-79
2022/03/25 05:58:35;;;;;;;51.50;30.60;;;1.70;99.90;;;;;;5012735;28;20199;-79
2022/03/25 06:01:01;;;;;;;55.57;31.67;;;1.90;99.90;;;;;;4996783;28;20186;-79
2022/03/25 06:03:27;;;;;;;52.90;30.67;;;1.90;99.90;;;;;;5013774;28;20206;-79
2022/03/25 06:05:53;;;;;;;54.93;30.33;;;2.00;99.90;;;;;;5013783;28;20180;-78
2022/03/25 06:08:19;;;;;;;54.23;33.00;;;2.20;99.90;;;;;;5014278;28;20552;-78
2022/03/25 06:10:46;;;;;;;54.70;33.27;;;2.30;99.90;;;;;;5014039;28;20192;-77
2022/03/25 06:13:12;;;;;;;54.47;33.87;;;2.40;99.90;;;;;;5013603;28;20551;-77
2022/03/25 06:15:37;;;;;;;56.40;31.57;;;2.50;99.90;;;;;;5014211;28;20190;-77
2022/03/25 06:18:03;;;;;;;58.33;33.53;;;2.50;99.90;;;;;;5013969;28;20604;-80
2022/03/25 06:20:29;;;;;;;56.50;34.43;;;2.60;99.90;;;;;;5014119;28;20180;-79
2022/03/25 06:22:56;;;;;;;61.47;34.23;;;2.60;99.90;;;;;;5013848;28;20196;-79
2022/03/25 06:25:22;;;;;;;59.47;35.17;;;2.60;99.90;;;;;;5013850;28;20226;-79
2022/03/25 06:27:50;;;;;;;56.50;36.03;;;2.80;99.90;;;;;;5014206;28;20199;-79
2022/03/25 06:30:17;;;;;;;53.60;32.23;;;2.90;99.90;;;;;;5014819;28;20572;-79
2022/03/25 06:32:43;;;;;;;50.83;30.87;;;2.90;99.90;;;;;;5012957;28;20668;-79
2022/03/25 06:35:09;;;;;;;53.80;32.80;;;3.00;99.90;;;;;;5012430;28;20191;-79
2022/03/25 06:37:36;;;;;;;55.43;32.63;;;3.20;99.90;;;;;;5013670;28;20270;-79
2022/03/25 06:40:07;;;;;;;54.70;32.80;;;3.40;99.90;;;;;;5013669;28;20267;-79
2022/03/25 06:42:36;;;;;;;58.03;32.93;;;3.50;99.90;;;;;;5013855;28;20203;-79
2022/03/25 06:45:02;;;;;;;57.37;33.90;;;3.60;99.90;;;;;;5012346;28;20234;-79
2022/03/25 06:47:29;;;;;;;51.57;31.53;;;3.70;99.90;;;;;;5013547;28;20571;-79
2022/03/25 06:49:55;;;;;;;53.13;30.67;;;3.70;99.90;;;;;;5013690;28;20250;-78
2022/03/25 06:52:21;;;;;;;56.80;32.07;;;3.80;99.90;;;;;;5015762;28;20207;-78
2022/03/25 06:54:47;;;;;;;48.83;31.23;;;3.80;99.90;;;;;;5015954;28;20188;-78
2022/03/25 06:57:13;;;;;;;50.27;30.67;;;3.90;99.90;;;;;;5016723;28;20246;-79
2022/03/25 06:59:41;;;;;;;48.47;29.40;;;3.90;99.90;;;;;;5016033;28;20188;-78
2022/03/25 07:02:08;;;;;;;54.97;31.07;;;4.00;99.90;;;;;;5016983;28;20176;-78
2022/03/25 07:04:35;;;;;;;50.07;29.50;;;4.10;99.90;;;;;;5017463;28;20591;-79
2022/03/25 07:07:04;;;;;;;52.73;30.67;;;4.20;99.90;;;;;;5017305;28;20203;-78
2022/03/25 07:09:30;;;;;;;49.00;29.57;;;4.30;99.90;;;;;;5017050;28;20195;-79
2022/03/25 07:11:57;;;;;;;46.23;29.87;;;4.50;99.90;;;;;;5017080;28;20176;-79
2022/03/25 07:14:22;;;;;;;52.00;31.67;;;4.50;99.90;;;;;;5015566;28;20634;-78
2022/03/25 07:16:48;;;;;;;52.50;30.90;;;4.70;99.90;;;;;;5015533;28;20225;-79
2022/03/25 07:19:14;;;;;;;50.67;30.10;;;4.90;99.90;;;;;;5015776;28;20207;-79
2022/03/25 07:21:40;;;;;;;51.93;32.40;;;5.00;99.90;;;;;;5016858;28;20187;-79
2022/03/25 07:24:06;;;;;;;52.47;31.50;;;5.20;99.90;;;;;;5016615;28;20209;-78
2022/03/25 07:26:32;;;;;;;55.77;31.27;;;5.30;99.90;;;;;;5016563;28;20581;-78
2022/03/25 07:28:58;;;;;;;50.87;31.43;;;5.30;99.90;;;;;;5017442;28;20246;-78
2022/03/25 07:31:28;;;;;;;57.27;33.37;;;5.50;99.90;;;;;;5016361;28;20207;-78
2022/03/25 07:33:57;;;;;;;57.87;32.57;;;5.60;99.90;;;;;;5016349;28;20181;-78
2022/03/25 07:36:23;;;;;;;49.30;30.50;;;5.70;99.90;;;;;;5016352;28;20180;-79
2022/03/25 07:38:49;;;;;;;60.13;34.10;;;5.90;99.90;;;;;;5016057;28;20206;-79
2022/03/25 07:41:15;;;;;;;56.23;33.30;;;6.00;99.90;;;;;;5015481;28;20188;-79
2022/03/25 07:43:41;;;;;;;57.37;34.70;;;6.20;99.90;;;;;;5016401;28;20204;-79
2022/03/25 07:46:07;;;;;;;55.10;32.03;;;6.30;99.90;;;;;;5016445;28;20180;-79
2022/03/25 07:48:32;;;;;;;49.50;31.47;;;6.40;99.90;;;;;;5015574;28;20265;-80
2022/03/25 07:50:58;;;;;;;57.57;33.00;;;6.50;99.90;;;;;;5016812;28;20175;-80
2022/03/25 07:53:24;;;;;;;59.33;34.17;;;6.70;99.90;;;;;;5015363;28;20210;-80
2022/03/25 07:55:53;;;;;;;60.77;35.10;;;6.80;99.90;;;;;;5016829;28;20166;-79
2022/03/25 07:58:19;;;;;;;53.73;31.37;;;7.00;99.90;;;;;;5015081;28;20204;-79
2022/03/25 08:00:49;;;;;;;53.93;33.97;;;7.20;99.90;;;;;;4999695;28;20658;-80
2022/03/25 08:03:16;;;;;;;53.30;31.60;;;7.40;99.90;;;;;;5016508;28;20647;-78
2022/03/25 08:05:43;;;;;;;54.73;33.63;;;7.60;99.90;;;;;;5022799;28;20259;-77
2022/03/25 08:08:09;;;;;;;54.03;32.47;;;7.80;99.90;;;;;;5019001;28;20203;-78
2022/03/25 08:10:35;;;;;;;56.30;32.50;;;8.00;99.90;;;;;;5016806;28;20214;-78
2022/03/25 08:13:02;;;;;;;52.73;33.20;;;8.20;99.90;;;;;;5014523;28;20188;-78
2022/03/25 08:15:29;;;;;;;58.23;32.20;;;8.40;99.90;;;;;;5015689;28;20206;-78
2022/03/25 08:18:06;;;;;;;55.83;32.67;;;8.60;99.90;;;;;;5016331;28;20212;-78
2022/03/25 08:20:39;;;;;;;58.00;31.63;;;8.80;99.90;;;;;;5015356;28;20622;-78
2022/03/25 08:28:45;;;;;;;46.70;28.13;;;10.60;99.90;;;;;;5019056;28;20295;-78
2022/03/25 08:31:11;;;;;;;43.10;26.45;;;12.10;99.90;;;;;;5016948;28;20187;-78
2022/03/25 08:33:36;;;;;;;44.72;25.65;;;13.20;99.90;;;;;;5016530;28;20184;-78
2022/03/25 08:36:02;;;;;;;45.90;26.00;;;14.20;99.90;;;;;;5018167;28;20179;-79
2022/03/25 08:38:33;;;;;;;42.25;26.08;;;14.80;99.90;;;;;;5017843;28;20191;-79
2022/03/25 08:40:59;;;;;;;40.72;27.42;;;15.50;99.90;;;;;;5017625;28;20271;-79
2022/03/25 08:43:24;;;;;;;37.25;24.88;;;16.70;99.90;;;;;;5018317;28;20231;-79
2022/03/25 08:45:50;;;;;;;37.40;24.70;;;17.30;99.90;;;;;;5016213;28;20176;-79
2022/03/25 08:48:17;;;;;;;41.00;26.65;;;17.20;99.90;;;;;;5016110;28;20210;-79
2022/03/25 08:50:43;;;;;;;40.90;26.70;;;17.60;99.90;;;;;;5015069;28;20236;-80
2022/03/25 08:53:08;;;;;;;42.10;28.55;;;17.80;99.90;;;;;;5016342;28;20207;-80
2022/03/25 08:55:34;;;;;;;41.78;28.00;;;17.70;99.90;;;;;;5015699;28;20209;-79
2022/03/25 08:57:59;;;;;;;37.72;26.55;;;18.00;99.90;;;;;;5016320;28;20211;-79
2022/03/25 09:00:25;;;;;;;40.83;27.13;;;18.10;99.90;;;;;;5014867;28;20190;-79
2022/03/25 09:02:51;;;;;;;37.92;26.50;;;18.10;99.90;;;;;;5016284;28;20200;-79
2022/03/25 09:05:17;;;;;;;36.05;26.20;;;18.10;99.90;;;;;;5016391;28;20175;-80
2022/03/25 09:07:43;;;;;;;37.55;26.17;;;18.40;99.90;;;;;;5016155;28;20223;-80
2022/03/25 09:10:14;;;;;;;43.88;27.98;;;18.30;99.90;;;;;;5016318;28;20214;-80
2022/03/25 09:12:41;;;;;;;41.60;28.60;;;18.30;99.90;;;;;;5015630;28;20585;-79
2022/03/25 09:15:07;;;;;;;39.47;26.67;;;18.50;99.90;;;;;;5015558;28;20535;-77
2022/03/25 09:17:33;;;;;;;40.40;27.48;;;18.30;99.90;;;;;;5014593;28;20195;-78
2022/03/25 09:19:59;;;;;;;38.45;27.65;;;18.10;99.90;;;;;;4997125;28;20673;-78
2022/03/25 09:22:25;;;;;;;36.90;26.25;;;17.70;99.90;;;;;;5013664;28;20658;-78
2022/03/25 09:24:51;;;;;;;37.10;25.75;;;17.60;99.90;;;;;;5014256;28;20176;-78
2022/03/25 09:27:17;;;;;;;40.38;26.05;;;17.70;99.90;;;;;;5016393;28;20176;-78
2022/03/25 09:29:44;;;;;;;45.05;26.48;;;17.40;99.90;;;;;;5015963;28;20665;-80
2022/03/25 09:32:10;;;;;;;40.17;25.58;;;17.30;99.90;;;;;;5015823;28;20646;-80
2022/03/25 09:37:21;;;;;;;35.20;24.05;;;16.70;99.90;;;;;;5016921;28;20163;-79
2022/03/25 09:39:48;;;;;;;36.30;24.80;;;16.50;99.90;;;;;;5015409;28;20148;-79
2022/03/25 09:42:15;;;;;;;37.50;24.65;;;16.50;99.90;;;;;;5015482;28;20642;-80
2022/03/25 09:44:42;;;;;;;33.92;20.92;;;16.50;99.90;;;;;;5014562;28;20180;-80
2022/03/25 09:47:10;;;;;;;32.95;22.00;;;16.50;99.90;;;;;;5015753;28;20254;-80
2022/03/25 09:49:40;;;;;;;36.40;19.88;;;16.40;99.90;;;;;;5015182;28;20557;-80
2022/03/25 09:52:07;;;;;;;31.83;19.42;;;16.50;99.90;;;;;;5014163;28;20226;-80
2022/03/25 09:54:32;;;;;;;28.38;15.52;;;16.50;99.90;;;;;;5015680;28;20166;-81
2022/03/25 09:56:58;;;;;;;30.95;15.65;;;16.40;99.90;;;;;;5019064;28;20552;-81
2022/03/25 09:59:24;;;;;;;28.23;16.20;;;16.30;99.90;;;;;;5018004;28;20196;-81
2022/03/25 10:01:49;;;;;;;22.23;14.85;;;16.40;99.90;;;;;;5014458;28;20178;-81
2022/03/25 10:04:48;;;;;;;24.27;15.30;;;16.30;99.90;;;;;;5015184;28;20204;-81
2022/03/25 10:07:25;;;;;;;21.85;15.20;;;16.30;99.90;;;;;;5013460;28;20203;-80
2022/03/25 10:10:11;;;;;;;25.60;15.45;;;16.30;99.90;;;;;;5014716;28;20152;-81
2022/03/25 10:12:38;;;;;;;29.48;16.17;;;16.40;99.90;;;;;;5015154;28;20168;-81
2022/03/25 10:15:21;;;;;;;26.70;15.20;;;16.40;99.90;;;;;;5014856;28;20558;-81
2022/03/25 10:18:01;;;;;;;24.95;15.52;;;16.50;99.90;;;;;;5013492;28;20258;-80
2022/03/25 10:20:33;;;;;;;25.58;14.93;;;16.50;99.90;;;;;;5013770;28;20246;-79
2022/03/25 10:23:09;;;;;;;26.58;16.05;;;16.60;99.90;;;;;;5014955;28;20198;-81
2022/03/25 10:25:37;;;;;;;28.42;16.73;;;16.60;99.90;;;;;;5015171;28;20669;-81
2022/03/25 10:28:04;;;;;;;26.38;15.93;;;16.60;99.90;;;;;;5019947;28;20674;-81
2022/03/25 10:30:39;;;;;;;28.58;16.67;;;16.50;99.90;;;;;;5018966;28;20238;-81
2022/03/25 10:33:13;;;;;;;27.08;15.93;;;16.50;99.90;;;;;;5018285;28;20581;-82
2022/03/25 10:35:55;;;;;;;30.77;17.02;;;16.50;99.90;;;;;;5018474;28;20160;-82
2022/03/25 10:38:22;;;;;;;27.48;16.38;;;16.40;99.90;;;;;;5019809;28;20199;-83
2022/03/25 10:40:53;;;;;;;26.73;16.63;;;16.60;99.90;;;;;;5018936;28;20629;-83
2022/03/25 10:43:19;;;;;;;28.83;16.85;;;16.60;99.90;;;;;;5018635;28;20192;-82
2022/03/25 10:45:46;;;;;;;27.65;17.00;;;16.70;99.90;;;;;;5017405;28;20160;-82
2022/03/25 10:48:21;;;;;;;26.80;16.75;;;16.80;99.90;;;;;;5018057;28;20196;-82
2022/03/25 10:51:10;;;;;;;23.77;15.75;;;16.70;99.90;;;;;;5018298;28;20630;-82
2022/03/25 10:53:37;;;;;;;30.27;16.25;;;16.80;99.90;;;;;;5018569;28;20152;-82
2022/03/25 10:56:10;;;;;;;36.83;17.30;;;17.00;99.90;;;;;;5018189;28;20178;-80
2022/03/25 10:58:36;;;;;;;25.52;17.45;;;17.00;99.90;;;;;;5017853;28;20203;-79
2022/03/25 11:01:05;;;;;;;28.80;17.10;;;17.10;99.90;;;;;;5016204;28;20183;-79
2022/03/25 11:03:31;;;;;;;26.13;15.30;;;17.30;99.90;;;;;;5017484;28;20191;-81
2022/03/25 11:05:58;;;;;;;33.08;15.98;;;17.50;99.90;;;;;;5016844;28;20232;-80
2022/03/25 11:08:24;;;;;;;28.17;15.13;;;17.40;99.90;;;;;;5016102;28;20202;-79
2022/03/25 11:10:51;;;;;;;26.30;15.13;;;17.40;99.90;;;;;;5017506;28;20164;-81
2022/03/25 11:13:17;;;;;;;25.45;15.00;;;17.60;99.90;;;;;;5017461;28;20195;-81
2022/03/25 11:15:44;;;;;;;29.95;15.70;;;17.70;99.90;;;;;;5017556;28;20700;-81
2022/03/25 11:18:11;;;;;;;31.35;16.38;;;17.90;99.90;;;;;;5017630;28;20202;-82
2022/03/25 11:20:38;;;;;;;29.05;15.25;;;18.00;99.90;;;;;;5016090;28;20183;-82
2022/03/25 11:23:03;;;;;;;23.35;15.20;;;18.20;99.90;;;;;;4999740;28;20290;-82
2022/03/25 11:25:33;;;;;;;22.52;13.40;;;18.30;99.90;;;;;;5017237;28;20207;-82
2022/03/25 11:28:07;;;;;;;22.63;13.68;;;18.40;99.90;;;;;;5016654;28;20200;-81
2022/03/25 11:30:35;;;;;;;24.73;13.45;;;18.50;99.90;;;;;;5030264;28;20157;-81
2022/03/25 11:33:06;;;;;;;26.88;13.82;;;18.60;99.90;;;;;;5019303;28;20171;-81
2022/03/25 11:35:37;;;;;;;26.80;14.23;;;18.70;99.90;;;;;;5016379;28;20553;-81
2022/03/25 11:38:12;;;;;;;21.52;12.80;;;18.80;99.90;;;;;;5015437;28;20191;-80
2022/03/25 11:41:18;;;;;;;22.13;12.40;;;18.90;99.90;;;;;;5016258;28;20579;-82
2022/03/25 11:43:44;;;;;;;19.88;12.15;;;18.70;99.90;;;;;;5016505;28;20207;-81
2022/03/25 11:46:10;;;;;;;19.67;12.65;;;18.90;99.90;;;;;;5016912;28;20236;-80
2022/03/25 11:48:40;;;;;;;24.83;13.60;;;18.90;99.90;;;;;;5016966;28;20195;-80
2022/03/25 11:51:26;;;;;;;23.02;12.93;;;18.80;99.90;;;;;;5017417;28;20176;-81
2022/03/25 11:53:51;;;;;;;23.13;13.27;;;18.90;99.90;;;;;;5015464;28;20665;-81
2022/03/25 11:56:17;;;;;;;20.30;12.95;;;19.20;99.90;;;;;;5017403;28;20179;-81
2022/03/25 11:58:54;;;;;;;20.77;12.77;;;19.30;99.90;;;;;;5017229;28;20195;-82
2022/03/25 12:01:20;;;;;;;24.02;13.20;;;19.40;99.90;;;;;;4999168;28;20230;-81
2022/03/25 12:03:54;;;;;;;26.52;14.15;;;19.50;99.90;;;;;;5015366;28;20204;-81
2022/03/25 12:06:25;;;;;;;21.17;12.90;;;19.60;99.90;;;;;;5015581;28;20202;-81
2022/03/25 12:09:01;;;;;;;25.27;13.55;;;19.80;99.90;;;;;;5015823;28;20230;-80
2022/03/25 12:11:53;;;;;;;24.30;14.45;;;20.00;99.90;;;;;;5019995;28;20183;-81
2022/03/25 12:14:30;;;;;;;23.17;13.45;;;20.10;99.90;;;;;;5017551;28;20179;-83
2022/03/25 12:17:04;;;;;;;25.17;13.73;;;20.00;99.90;;;;;;5016831;28;20163;-83
2022/03/25 12:19:29;;;;;;;27.30;15.70;;;20.10;99.90;;;;;;5016582;28;20262;-84
2022/03/25 12:21:59;;;;;;;26.98;16.98;;;20.30;99.90;;;;;;4998906;28;20650;-83
2022/03/25 12:24:26;;;;;;;27.80;16.75;;;20.40;99.90;;;;;;5016679;28;20650;-83
2022/03/25 12:27:00;;;;;;;28.48;16.35;;;20.70;99.90;;;;;;5015619;28;20180;-83
2022/03/25 12:29:34;;;;;;;27.50;17.15;;;21.10;99.90;;;;;;4999746;28;20199;-84
2022/03/25 12:32:10;;;;;;;27.77;16.40;;;20.90;99.90;;;;;;5015663;28;20176;-83
2022/03/25 12:34:54;;;;;;;27.30;17.42;;;21.10;99.90;;;;;;5016711;28;20172;-83
2022/03/25 12:37:44;;;;;;;23.90;15.95;;;21.30;99.90;;;;;;5016659;28;20167;-82
2022/03/25 12:40:28;;;;;;;28.48;17.27;;;21.50;99.90;;;;;;5006711;28;20242;-83
2022/03/25 12:42:57;;;;;;;25.38;14.95;;;21.40;99.90;;;;;;5016489;28;20202;-83
2022/03/25 12:45:45;;;;;;;26.00;16.88;;;21.60;99.90;;;;;;4998803;28;20172;-83